»·PEaware :: SWA1008 KPHX-KABQ

SWA1008 :: KPHX-KABQ

FLIGHT INFORMATION

Flight Status: Arrived
Operator:
Southwest Airlines
More flights by this operator :: More flights under this callsign
Pilot: Sam F. (29954)
Aircraft: BOEING 737-800
(B738)
More flights by this aircraft type
Origin: KPHX Phoenix Sky Harbor Intl
United States
Destination: KABQ Albuquerque Intl Sunport
United States
More flights between these airports :: More routes between these airports
Route: FORPE1 FORPE KRKEE KRKEE3
File this flight plan on PilotEdge
Remarks: RMK / SIMBRIEF
Altitude:
(Current/Filed)
35,000ft
Speed:
(Current/Filed)
461kts
Departed: 12-Jun-20 09:43 AM
Arrived: 12-Jun-20 10:30 AM
Distance/Time
Traveled:
285nm/0:46
Distance/Time
To Go:
Arrived

Flight Plot

Page will automatically refresh every two minutes.

Flight plan parsing failed; only flown route is shown


Map Options




Map Legend


Flown Route
Filed Route
Departure Airport
Arrival Airport
Navaid (VOR, NDB)
Fix

Horizontal Profiles

Position Reports

Time Latitude Longitude Heading Altitude Ground
Speed
12-Jun-20 09:34 33.433405 -111.997821 179 1141ft 0kts
12-Jun-20 09:35 33.433035 -111.997827 189 1141ft 4kts
12-Jun-20 09:35 33.432819 -112.000292 270 1141ft 15kts
12-Jun-20 09:37 33.432870 -112.006150 271 1141ft 16kts
12-Jun-20 09:37 33.432877 -112.010799 270 1141ft 19kts
12-Jun-20 09:38 33.432879 -112.017038 270 1141ft 19kts
12-Jun-20 09:40 33.432886 -112.024785 269 1141ft 19kts
12-Jun-20 09:40 33.432144 -112.026996 180 1141ft 4kts
12-Jun-20 09:41 33.431388 -112.026973 177 1141ft 7kts
12-Jun-20 09:42 33.430960 -112.000021 90 1284ft 179kts
12-Jun-20 09:43 33.434522 -111.936650 85 3047ft 240kts
12-Jun-20 09:44 33.443336 -111.851579 61 6128ft 272kts
12-Jun-20 09:45 33.480984 -111.771402 65 9317ft 288kts
12-Jun-20 09:46 33.519507 -111.677425 66 10893ft 351kts
12-Jun-20 09:47 33.563939 -111.568960 66 13378ft 373kts
12-Jun-20 09:48 33.610808 -111.454582 66 15968ft 391kts
12-Jun-20 09:49 33.659834 -111.335208 66 18929ft 391kts
12-Jun-20 09:50 33.702535 -111.211014 73 21088ft 408kts
12-Jun-20 09:51 33.741986 -111.082423 71 22732ft 416kts
12-Jun-20 09:52 33.785023 -110.950478 70 24688ft 431kts
12-Jun-20 09:53 33.826829 -110.813160 72 26482ft 444kts
12-Jun-20 09:54 33.864452 -110.669939 74 28121ft 455kts
12-Jun-20 09:55 33.901468 -110.522505 72 29695ft 465kts
12-Jun-20 09:56 33.941419 -110.375052 71 31583ft 462kts
12-Jun-20 09:57 33.982563 -110.226273 71 32648ft 476kts
12-Jun-20 09:58 34.024933 -110.073209 70 33648ft 488kts
12-Jun-20 09:59 34.068174 -109.916349 70 34716ft 495kts
12-Jun-20 10:00 34.110499 -109.761986 70 35470ft 482kts
12-Jun-20 10:01 34.152392 -109.608398 70 35478ft 480kts
12-Jun-20 10:02 34.193840 -109.455591 70 35489ft 481kts
12-Jun-20 10:03 34.235366 -109.301694 71 35492ft 481kts
12-Jun-20 10:04 34.276612 -109.148089 70 35469ft 481kts
12-Jun-20 10:05 34.317459 -108.994942 69 34504ft 477kts
12-Jun-20 10:06 34.357708 -108.843162 69 31961ft 467kts
12-Jun-20 10:07 34.396665 -108.695417 70 29717ft 453kts
12-Jun-20 10:08 34.434026 -108.552620 70 27552ft 439kts
12-Jun-20 10:09 34.470034 -108.413980 71 25487ft 426kts
12-Jun-20 10:10 34.504653 -108.280694 72 24509ft 416kts
12-Jun-20 10:11 34.539369 -108.145639 72 24512ft 419kts
12-Jun-20 10:12 34.573924 -108.010917 72 24512ft 419kts
12-Jun-20 10:13 34.608506 -107.875531 72 24512ft 419kts
12-Jun-20 10:14 34.648951 -107.744127 60 24493ft 418kts
12-Jun-20 10:15 34.702836 -107.620405 60 23486ft 409kts
12-Jun-20 10:16 34.754962 -107.499615 61 21474ft 399kts
12-Jun-20 10:17 34.805700 -107.381408 61 19413ft 390kts
12-Jun-20 10:18 34.855308 -107.264776 63 16983ft 390kts
12-Jun-20 10:19 34.897974 -107.151385 77 15534ft 331kts
12-Jun-20 10:20 34.912912 -107.043029 83 13926ft 317kts
12-Jun-20 10:21 34.925259 -106.939206 83 12386ft 306kts
12-Jun-20 10:22 34.937159 -106.838539 83 10889ft 296kts
12-Jun-20 10:23 34.948276 -106.744247 83 10272ft 267kts
12-Jun-20 10:24 34.954189 -106.657181 89 9420ft 254kts
12-Jun-20 10:25 34.956411 -106.576057 80 8471ft 223kts
12-Jun-20 10:26 34.992239 -106.520827 29 7311ft 190kts
12-Jun-20 10:27 35.035572 -106.518115 307 6343ft 166kts
12-Jun-20 10:28 35.043980 -106.570738 269 5487ft 159kts
12-Jun-20 10:29 35.044433 -106.600976 288 5325ft 18kts
12-Jun-20 10:30 35.045759 -106.606162 270 5324ft 15kts
12-Jun-20 10:31 35.045801 -106.612028 270 5322ft 15kts
12-Jun-20 10:32 35.046939 -106.613893 306 5320ft 7kts

Navigation Log

Ident Type
Flight plan parsing failed, navigation log unavailable